Time;durP1;ratioP1;P1;durP2;ratioP2;P2;SDS_P1;SDS_P2;PMS_P1;PMS_P2;Temp;Humidity;BMP_temperature;BMP_pressure;BME280_temperature;BME280_humidity;BME280_pressure;Samples;Min_cycle;Max_cycle;Signal;HPM_P1;HPM_P2
2022/11/17 00:01:36;;;;;;;1.20;0.50;;;;;;;9.51;100.00;98683.84;5032004;27;97803;-31
2022/11/17 00:04:01;;;;;;;0.70;0.50;;;;;;;9.53;100.00;98673.75;5031528;28;113369;-31
2022/11/17 00:06:27;;;;;;;0.68;0.13;;;;;;;9.50;100.00;98668.66;5032261;27;96710;-32
2022/11/17 00:08:52;;;;;;;1.65;0.60;;;;;;;9.54;100.00;98670.09;5031711;27;102555;-31
2022/11/17 00:11:17;;;;;;;2.45;0.60;;;;;;;9.57;100.00;98649.03;5031643;28;103779;-31
2022/11/17 00:16:27;;;;;;;0.75;0.25;;;;;;;9.51;100.00;98622.59;5035491;28;96724;-31
2022/11/17 00:21:36;;;;;;;0.30;0.30;;;;;;;9.55;100.00;98607.75;5035000;28;97043;-31
2022/11/17 00:24:02;;;;;;;0.38;0.38;;;;;;;9.56;100.00;98614.88;5035704;27;96645;-31
2022/11/17 00:26:30;;;;;;;1.27;0.45;;;;;;;9.56;100.00;98619.44;5035485;27;96746;-33
2022/11/17 00:29:00;;;;;;;3.05;0.28;;;;;;;9.55;100.00;98620.44;5033659;28;101106;-32
2022/11/17 00:34:22;;;;;;;2.42;0.32;;;;;;;9.61;100.00;98608.22;5035857;28;96586;-31
2022/11/17 00:36:51;;;;;;;0.85;0.38;;;;;;;9.60;100.00;98614.59;5033847;28;96712;-31
2022/11/17 00:39:20;;;;;;;0.40;0.40;;;;;;;9.61;100.00;98613.63;5033261;28;101168;-33
2022/11/17 00:41:46;;;;;;;0.47;0.47;;;;;;;9.62;100.00;98604.50;5033605;28;100980;-31
2022/11/17 00:44:11;;;;;;;0.47;0.40;;;;;;;9.64;100.00;98600.66;5033710;28;96634;-31
2022/11/17 00:46:37;;;;;;;3.70;0.55;;;;;;;9.66;100.00;98595.13;5035154;28;96759;-31
2022/11/17 00:49:04;;;;;;;1.60;0.63;;;;;;;9.66;100.00;98589.72;5035356;28;97399;-31
2022/11/17 00:51:30;;;;;;;1.33;0.45;;;;;;;9.68;100.00;98587.72;5033387;28;100849;-31
2022/11/17 00:53:55;;;;;;;0.55;0.38;;;;;;;9.67;100.00;98576.03;5034754;27;96491;-31
2022/11/17 00:56:21;;;;;;;1.15;0.63;;;;;;;9.69;100.00;98586.72;5035303;27;96790;-31
2022/11/17 00:58:47;;;;;;;1.38;0.50;;;;;;;9.72;100.00;98586.41;5033239;28;100871;-31
2022/11/17 01:01:12;;;;;;;3.05;0.80;;;;;;;9.72;100.00;98583.69;5034703;28;100573;-31
2022/11/17 01:03:38;;;;;;;1.52;0.50;;;;;;;9.76;100.00;98588.69;5034508;28;96632;-32
2022/11/17 01:06:09;;;;;;;2.03;0.80;;;;;;;9.77;100.00;98586.81;5034337;27;97008;-31
2022/11/17 01:08:35;;;;;;;1.90;0.63;;;;;;;9.77;100.00;98571.47;5033321;28;100650;-31
2022/11/17 01:11:09;;;;;;;0.55;0.38;;;;;;;9.78;100.00;98575.88;5034666;27;97773;-31
2022/11/17 01:13:36;;;;;;;1.55;0.40;;;;;;;9.79;100.00;98564.03;5033219;28;96567;-32
2022/11/17 01:16:04;;;;;;;0.60;0.40;;;;;;;9.82;100.00;98565.63;5033076;28;96840;-31
2022/11/17 01:18:29;;;;;;;0.95;0.45;;;;;;;9.81;100.00;98563.06;5033086;28;100916;-31
2022/11/17 01:20:55;;;;;;;0.40;0.40;;;;;;;9.86;100.00;98566.19;5034641;27;99144;-31
2022/11/17 01:23:20;;;;;;;3.20;0.20;;;;;;;9.87;100.00;98557.09;5034181;27;96912;-31
2022/11/17 01:25:45;;;;;;;0.55;0.40;;;;;;;9.88;100.00;98564.19;5034288;27;96781;-32
2022/11/17 01:28:11;;;;;;;0.35;0.25;;;;;;;9.88;100.00;98545.25;5033930;28;97916;-31
2022/11/17 01:30:36;;;;;;;0.65;0.40;;;;;;;9.92;100.00;98552.09;5034682;27;97272;-33
2022/11/17 01:33:01;;;;;;;1.65;0.50;;;;;;;9.93;100.00;98545.66;5033709;27;105352;-31
2022/11/17 01:35:26;;;;;;;0.60;0.30;;;;;;;9.93;100.00;98551.06;5033740;28;113193;-31
2022/11/17 01:37:52;;;;;;;0.57;0.50;;;;;;;9.90;100.00;98545.97;5033710;28;113342;-31
2022/11/17 01:40:17;;;;;;;1.38;0.68;;;;;;;9.96;100.00;98545.34;5034069;28;97992;-32
2022/11/17 01:42:42;;;;;;;0.73;0.45;;;;;;;9.96;100.00;98539.94;5034505;27;96431;-31
2022/11/17 01:45:24;;;;;;;2.65;0.45;;;;;;;9.99;100.00;98540.53;5034395;27;96871;-31
2022/11/17 01:48:00;;;;;;;1.30;0.50;;;;;;;9.98;100.00;98529.84;5032665;28;101254;-32
2022/11/17 01:50:41;;;;;;;0.88;0.47;;;;;;;10.00;100.00;98530.56;5032540;27;100765;-31
2022/11/17 01:53:13;;;;;;;0.90;0.57;;;;;;;10.00;100.00;98523.28;5032159;28;97144;-31
2022/11/17 01:55:55;;;;;;;;;;;;;;;10.04;100.00;98520.31;5034457;28;96788;-31
2022/11/17 01:58:31;;;;;;;0.30;0.30;;;;;;;10.04;100.00;98523.84;5032478;28;100927;-31
2022/11/17 02:00:57;;;;;;;0.40;0.38;;;;;;;10.06;100.00;98511.03;5032520;28;101126;-31
2022/11/17 02:03:24;;;;;;;2.30;0.32;;;;;;;10.07;100.00;98509.19;5033398;28;105115;-31
2022/11/17 02:05:55;;;;;;;0.47;0.25;;;;;;;10.07;100.00;98506.47;5032248;27;96950;-32
2022/11/17 02:08:25;;;;;;;2.38;0.82;;;;;;;10.07;100.00;98503.78;5032338;28;100918;-31
2022/11/17 02:10:51;;;;;;;0.55;0.38;;;;;;;10.07;100.00;98499.19;5032579;28;101145;-31
2022/11/17 02:13:18;;;;;;;0.50;0.40;;;;;;;10.09;100.00;98497.19;5032145;28;96611;-31
2022/11/17 02:15:43;;;;;;;1.00;0.50;;;;;;;10.09;100.00;98489.09;5033495;27;96850;-31
2022/11/17 02:18:09;;;;;;;1.00;0.40;;;;;;;10.11;100.00;98487.09;5033549;27;97285;-32
2022/11/17 02:20:55;;;;;;;1.25;0.50;;;;;;;10.12;100.00;98496.06;5033695;27;97736;-31
2022/11/17 02:24:06;;;;;;;0.28;0.28;;;;;;;10.13;100.00;98478.81;5033210;28;96725;-31
2022/11/17 02:26:46;;;;;;;0.40;0.40;;;;;;;10.14;100.00;98484.06;5021793;28;96959;-31
2022/11/17 02:29:26;;;;;;;0.32;0.25;;;;;;;10.15;100.00;98477.69;5033496;27;97978;-31
2022/11/17 02:31:58;;;;;;;2.53;0.65;;;;;;;10.17;100.00;98478.34;5032364;27;97776;-31
2022/11/17 02:34:51;;;;;;;1.40;0.65;;;;;;;10.16;100.00;98479.38;5032116;28;96951;-31
2022/11/17 02:37:35;;;;;;;1.02;0.35;;;;;;;10.16;100.00;98473.97;5033301;28;96888;-32
2022/11/17 02:40:16;;;;;;;0.80;0.47;;;;;;;10.16;100.00;98471.25;5033544;28;97348;-31
2022/11/17 02:45:37;;;;;;;0.65;0.30;;;;;;;10.20;100.00;98463.69;5033334;28;96560;-31
2022/11/17 02:48:09;;;;;;;0.15;0.15;;;;;;;10.20;100.00;98456.44;5031734;28;97198;-32
2022/11/17 02:50:35;;;;;;;0.13;0.13;;;;;;;10.24;100.00;98456.97;5033161;27;97482;-31
2022/11/17 02:53:02;;;;;;;0.20;0.20;;;;;;;10.23;100.00;98454.44;5031278;28;100971;-31
2022/11/17 02:55:32;;;;;;;0.93;0.52;;;;;;;10.25;100.00;98452.41;5031684;28;96662;-31
2022/11/17 02:57:57;;;;;;;0.52;0.28;;;;;;;10.21;100.00;98441.03;5032901;28;96761;-32
2022/11/17 03:00:22;;;;;;;0.57;0.30;;;;;;;10.20;100.00;98442.91;5032166;28;120458;-31
2022/11/17 03:03:09;;;;;;;0.50;0.32;;;;;;;10.25;100.00;98447.00;5033405;28;97819;-32
2022/11/17 03:05:56;;;;;;;0.65;0.43;;;;;;;10.24;100.00;98434.47;5032343;28;96607;-31
2022/11/17 03:08:47;;;;;;;0.73;0.20;;;;;;;10.21;100.00;98439.19;5033066;27;96844;-33
2022/11/17 03:11:13;;;;;;;0.70;0.30;;;;;;;10.24;100.00;98432.63;5032338;28;98078;-31
2022/11/17 03:13:48;;;;;;;3.08;0.40;;;;;;;10.25;100.00;98428.06;5031392;28;100949;-32
2022/11/17 03:16:37;;;;;;;0.50;0.28;;;;;;;10.23;100.00;98414.69;5032492;28;96935;-32
2022/11/17 03:19:16;;;;;;;0.50;0.25;;;;;;;10.21;100.00;98409.44;5031277;28;96732;-31
2022/11/17 03:21:51;;;;;;;0.90;0.38;;;;;;;10.20;100.00;98405.03;5030635;28;101039;-31
2022/11/17 03:24:29;;;;;;;0.32;0.20;;;;;;;10.23;100.00;98394.91;5031151;28;100810;-33
2022/11/17 03:27:02;;;;;;;1.67;0.35;;;;;;;10.19;100.00;98395.19;5032797;27;96481;-31
2022/11/17 03:29:31;;;;;;;5.05;0.52;;;;;;;10.21;100.00;98392.34;5031717;28;97186;-31
2022/11/17 03:32:00;;;;;;;2.22;0.15;;;;;;;10.21;100.00;98379.66;5030915;28;101154;-31
2022/11/17 03:34:31;;;;;;;1.17;0.43;;;;;;;10.20;100.00;98377.09;5030888;28;100785;-31
2022/11/17 03:37:01;;;;;;;1.60;0.45;;;;;;;10.24;100.00;98383.06;5030573;28;96878;-32
2022/11/17 03:39:33;;;;;;;2.33;0.40;;;;;;;10.21;100.00;98376.97;5031025;28;97111;-33
2022/11/17 03:42:24;;;;;;;1.38;0.40;;;;;;;10.25;100.00;98366.69;5030885;28;101238;-31
2022/11/17 03:44:54;;;;;;;1.20;0.40;;;;;;;10.23;100.00;98362.44;5025060;28;97892;-32
2022/11/17 03:47:24;;;;;;;0.30;0.10;;;;;;;10.24;100.00;98358.72;5030749;28;96715;-33
2022/11/17 03:49:58;;;;;;;7.80;0.50;;;;;;;10.25;100.00;98350.47;5029820;28;96741;-31
2022/11/17 03:52:25;;;;;;;0.63;0.40;;;;;;;10.24;100.00;98348.75;5030541;28;101107;-31
2022/11/17 03:54:51;;;;;;;0.68;0.35;;;;;;;10.26;100.00;98346.75;5030897;28;101146;-33
2022/11/17 03:57:41;;;;;;;0.30;0.30;;;;;;;10.28;100.00;98357.44;5030703;28;96707;-31
2022/11/17 04:00:12;;;;;;;1.50;0.25;;;;;;;10.26;100.00;98357.56;5030780;28;96602;-32
2022/11/17 04:02:44;;;;;;;0.98;0.30;;;;;;;10.26;100.00;98349.44;5029987;28;102413;-30
2022/11/17 04:05:11;;;;;;;;;;;;;;;10.28;100.00;98349.31;5030964;28;101319;-30
2022/11/17 04:07:39;;;;;;;0.98;0.15;;;;;;;10.27;100.00;98347.59;5031896;27;97629;-31
2022/11/17 04:10:07;;;;;;;1.38;0.32;;;;;;;10.27;100.00;98350.28;5030703;28;96704;-31
2022/11/17 04:18:02;;;;;;;3.72;0.50;;;;;;;10.25;100.00;98330.66;5030448;28;96750;-31
2022/11/17 04:20:34;;;;;;;0.20;0.13;;;;;;;10.22;100.00;98326.41;5030903;28;96780;-31
2022/11/17 04:23:07;;;;;;;0.20;0.20;;;;;;;10.24;100.00;98329.81;5029926;28;100955;-31
2022/11/17 04:28:36;;;;;;;0.40;0.30;;;;;;;10.25;100.00;98319.84;5031649;28;96486;-31
2022/11/17 04:31:05;;;;;;;0.20;0.20;;;;;;;10.24;100.00;98312.75;5031833;27;96540;-31
2022/11/17 04:33:31;;;;;;;0.10;0.05;;;;;;;10.25;100.00;98306.31;5031455;28;99269;-32
2022/11/17 04:35:57;;;;;;;1.13;0.85;;;;;;;10.24;100.00;98315.44;5030220;28;101000;-31
2022/11/17 04:38:22;;;;;;;0.40;0.30;;;;;;;10.24;100.00;98318.16;5031796;28;96436;-31
2022/11/17 04:43:31;;;;;;;0.40;0.40;;;;;;;10.27;100.00;98313.25;5031777;28;97129;-31
2022/11/17 04:46:00;;;;;;;0.52;0.32;;;;;;;10.25;100.00;98307.19;5031745;27;99599;-31
2022/11/17 04:48:27;;;;;;;0.55;0.38;;;;;;;10.25;100.00;98315.31;5030201;28;96619;-31
2022/11/17 04:50:56;;;;;;;5.00;0.30;;;;;;;10.26;100.00;98311.56;5030004;28;96971;-32
2022/11/17 04:53:22;;;;;;;0.93;0.35;;;;;;;10.24;100.00;98319.00;5029411;28;101218;-31
2022/11/17 04:55:47;;;;;;;0.73;0.38;;;;;;;10.24;100.00;98320.84;5030017;28;101026;-31
2022/11/17 04:58:13;;;;;;;0.25;0.15;;;;;;;10.27;100.00;98321.38;5031293;27;97560;-31
2022/11/17 05:00:38;;;;;;;0.95;0.40;;;;;;;10.27;100.00;98326.78;5033515;27;96875;-31
2022/11/17 05:03:03;;;;;;;0.85;0.52;;;;;;;10.26;100.00;98316.97;5034544;27;103218;-31
2022/11/17 05:05:29;;;;;;;2.47;0.47;;;;;;;10.26;100.00;98313.44;5034699;27;97310;-31
2022/11/17 05:07:54;;;;;;;0.65;0.30;;;;;;;10.25;100.00;98318.00;5035022;27;96588;-31
2022/11/17 05:13:20;;;;;;;2.92;0.22;;;;;;;10.29;100.00;98316.69;5035053;27;102182;-33
2022/11/17 05:18:32;;;;;;;0.70;0.22;;;;;;;10.26;100.00;98313.44;5034694;27;96602;-31
2022/11/17 05:21:02;;;;;;;0.90;0.40;;;;;;;10.28;100.00;98316.84;5034129;28;106579;-31
2022/11/17 05:26:11;;;;;;;2.08;0.38;;;;;;;10.30;100.00;98325.69;5033085;28;97052;-32
2022/11/17 05:28:36;;;;;;;0.80;0.43;;;;;;;10.30;100.00;98326.53;5034209;28;103928;-31
2022/11/17 05:31:02;;;;;;;1.70;0.40;;;;;;;10.31;100.00;98319.25;5033898;28;109786;-31
2022/11/17 05:33:27;;;;;;;1.27;0.40;;;;;;;10.35;100.00;98320.66;5034334;27;97925;-32
2022/11/17 05:35:52;;;;;;;0.15;0.10;;;;;;;10.33;100.00;98318.09;5034440;27;97907;-32
2022/11/17 05:38:18;;;;;;;0.45;0.40;;;;;;;10.33;100.00;98315.38;5034052;28;105947;-31
2022/11/17 05:40:43;;;;;;;1.02;0.45;;;;;;;10.34;100.00;98313.53;5033946;28;105184;-32
2022/11/17 05:43:08;;;;;;;1.23;0.40;;;;;;;10.31;100.00;98303.88;5032922;28;119402;-31
2022/11/17 05:45:33;;;;;;;2.70;0.25;;;;;;;10.36;100.00;98308.81;5033818;27;103616;-33
2022/11/17 05:47:59;;;;;;;0.63;0.47;;;;;;;10.35;100.00;98310.69;5033755;27;101696;-31
2022/11/17 05:50:24;;;;;;;3.13;0.68;;;;;;;10.36;100.00;98311.53;5033493;28;109626;-31
2022/11/17 05:52:49;;;;;;;0.20;0.20;;;;;;;10.34;100.00;98302.69;5033426;28;111533;-30
2022/11/17 05:55:14;;;;;;;2.00;0.65;;;;;;;10.33;100.00;98312.69;5033135;28;119602;-31
2022/11/17 05:57:41;;;;;;;2.10;0.75;;;;;;;10.35;100.00;98312.53;5033482;27;114550;-31
2022/11/17 06:00:07;;;;;;;4.80;1.05;;;;;;;10.35;100.00;98329.63;5032961;28;96794;-31
2022/11/17 06:02:44;;;;;;;3.05;1.63;;;;;;;10.37;100.00;98315.94;5032367;28;101024;-31
2022/11/17 06:05:09;;;;;;;1.17;0.65;;;;;;;10.33;100.00;98319.97;5034022;27;97494;-31
2022/11/17 06:07:35;;;;;;;1.33;0.55;;;;;;;10.33;100.00;98325.38;5032466;27;112815;-31
2022/11/17 06:10:01;;;;;;;1.83;0.82;;;;;;;10.37;100.00;98329.47;5033587;28;96885;-32
2022/11/17 06:12:26;;;;;;;2.85;0.65;;;;;;;10.33;100.00;98333.50;5032576;27;99812;-31
2022/11/17 06:14:51;;;;;;;1.42;0.90;;;;;;;10.32;100.00;98319.13;5033318;27;99269;-32
2022/11/17 06:17:41;;;;;;;2.50;0.70;;;;;;;10.29;100.00;98341.06;5032993;27;101669;-31
2022/11/17 06:20:16;;;;;;;1.77;0.60;;;;;;;10.29;100.00;98332.09;5032435;28;96608;-31
2022/11/17 06:22:42;;;;;;;1.75;0.90;;;;;;;10.24;100.00;98326.25;5031427;28;100970;-30
2022/11/17 06:25:09;;;;;;;2.92;0.45;;;;;;;10.20;100.00;98334.69;5033843;28;97877;-31
2022/11/17 06:27:36;;;;;;;0.32;0.22;;;;;;;10.21;100.00;98328.28;5032073;28;96575;-31
2022/11/17 06:30:03;;;;;;;1.42;0.57;;;;;;;10.20;100.00;98332.00;5033526;28;96831;-32
2022/11/17 06:32:30;;;;;;;4.43;0.50;;;;;;;10.18;100.00;98328.59;5031277;28;101513;-31
2022/11/17 06:34:56;;;;;;;3.17;0.88;;;;;;;10.19;100.00;98341.09;5031842;28;100731;-31
2022/11/17 06:37:22;;;;;;;1.23;1.05;;;;;;;10.15;100.00;98333.44;5033603;28;96491;-32
2022/11/17 06:39:47;;;;;;;2.95;0.82;;;;;;;10.14;100.00;98335.31;5031961;28;96836;-32
2022/11/17 06:42:12;;;;;;;2.28;0.88;;;;;;;10.12;100.00;98339.16;5032424;28;105422;-33
2022/11/17 06:44:38;;;;;;;1.35;0.73;;;;;;;10.11;100.00;98334.78;5032817;27;102758;-31
2022/11/17 06:47:03;;;;;;;4.40;1.00;;;;;;;10.11;100.00;98337.47;5031903;27;97115;-31
2022/11/17 06:49:28;;;;;;;0.98;0.60;;;;;;;10.11;100.00;98343.72;5033913;27;96887;-31
2022/11/17 06:51:54;;;;;;;2.83;0.38;;;;;;;10.06;100.00;98350.59;5032705;28;105336;-31
2022/11/17 06:54:19;;;;;;;0.57;0.35;;;;;;;10.03;100.00;98354.44;5033110;28;97823;-33
2022/11/17 06:56:45;;;;;;;5.38;1.88;;;;;;;10.03;100.00;98353.59;5032456;27;96756;-31
2022/11/17 06:59:10;;;;;;;2.08;1.05;;;;;;;10.00;100.00;98354.75;5032906;28;96888;-31
2022/11/17 07:01:36;;;;;;;2.22;0.93;;;;;;;9.97;100.00;98355.06;5031259;27;107887;-31
2022/11/17 07:04:01;;;;;;;2.55;0.85;;;;;;;9.95;100.00;98362.47;5031524;28;100948;-31
2022/11/17 07:06:27;;;;;;;1.42;0.73;;;;;;;9.92;100.00;98368.22;5032840;27;96740;-31
2022/11/17 07:08:52;;;;;;;3.10;1.10;;;;;;;9.90;100.00;98365.63;5032741;28;96514;-31
2022/11/17 07:11:18;;;;;;;0.88;0.40;;;;;;;9.89;100.00;98361.25;5032802;27;98087;-31
2022/11/17 07:13:44;;;;;;;0.65;0.50;;;;;;;9.84;100.00;98358.13;5032025;27;97829;-31
2022/11/17 07:16:15;;;;;;;3.97;1.05;;;;;;;9.85;100.00;98376.06;5030174;27;97266;-33
2022/11/17 07:18:41;;;;;;;1.25;0.70;;;;;;;9.83;100.00;98371.81;5029076;28;96983;-33
2022/11/17 07:21:09;;;;;;;2.97;0.90;;;;;;;9.79;100.00;98377.50;5029757;28;98162;-33
2022/11/17 07:23:36;;;;;;;1.58;0.75;;;;;;;9.78;100.00;98381.22;5028055;28;100771;-34
2022/11/17 07:26:02;;;;;;;2.33;0.60;;;;;;;9.76;100.00;98380.50;5028542;28;97081;-32
2022/11/17 07:28:28;;;;;;;1.40;0.55;;;;;;;9.73;100.00;98372.72;5030209;27;97119;-31
2022/11/17 07:30:54;;;;;;;3.83;1.02;;;;;;;9.74;100.00;98384.38;5032605;27;97463;-31
2022/11/17 07:33:19;;;;;;;0.93;0.55;;;;;;;9.76;100.00;98395.88;5032442;27;97213;-32
2022/11/17 07:35:45;;;;;;;0.70;0.50;;;;;;;9.75;100.00;98388.78;5032607;28;96458;-31
2022/11/17 07:38:11;;;;;;;0.88;0.40;;;;;;;9.73;100.00;98393.50;5032819;27;96791;-31
2022/11/17 07:40:36;;;;;;;0.68;0.30;;;;;;;9.72;100.00;98387.22;5030932;28;100958;-31
2022/11/17 07:43:01;;;;;;;0.50;0.43;;;;;;;9.68;100.00;98393.09;5032067;28;107286;-31
2022/11/17 07:45:27;;;;;;;0.95;0.70;;;;;;;9.71;100.00;98393.63;5031875;27;96589;-31
2022/11/17 07:47:57;;;;;;;2.55;0.45;;;;;;;9.69;100.00;98403.75;5032440;28;96753;-31
2022/11/17 07:50:24;;;;;;;0.75;0.38;;;;;;;9.69;100.00;98405.59;5030826;28;101388;-33
2022/11/17 07:52:50;;;;;;;0.80;0.57;;;;;;;9.72;100.00;98416.09;5032012;27;99231;-32
2022/11/17 07:55:16;;;;;;;0.45;0.43;;;;;;;9.67;100.00;98410.28;5030764;28;96752;-31
2022/11/17 07:57:42;;;;;;;1.10;0.52;;;;;;;9.68;100.00;98420.13;5032296;27;96729;-31
2022/11/17 08:00:07;;;;;;;1.45;0.47;;;;;;;9.65;100.00;98420.41;5032318;27;97828;-31
2022/11/17 08:02:33;;;;;;;1.15;0.40;;;;;;;9.64;100.00;98419.56;5032269;27;97789;-31
2022/11/17 08:04:58;;;;;;;0.28;0.17;;;;;;;9.64;100.00;98421.41;5031971;28;96479;-32
2022/11/17 08:07:23;;;;;;;4.70;1.15;;;;;;;9.65;100.00;98420.41;5031297;27;104934;-34
2022/11/17 08:09:49;;;;;;;1.40;0.43;;;;;;;9.66;100.00;98419.41;5029738;28;100977;-31
2022/11/17 08:12:14;;;;;;;0.68;0.30;;;;;;;9.66;100.00;98422.13;5032262;28;97270;-32
2022/11/17 08:14:39;;;;;;;0.63;0.40;;;;;;;9.64;100.00;98422.25;5031735;27;96546;-31
2022/11/17 08:17:05;;;;;;;1.58;0.45;;;;;;;9.62;100.00;98418.84;5030798;28;120008;-30
2022/11/17 08:19:30;;;;;;;0.90;0.22;;;;;;;9.64;100.00;98433.06;5031624;28;107507;-31
2022/11/17 08:21:55;;;;;;;2.85;0.43;;;;;;;9.63;100.00;98415.16;5027746;28;119909;-31
2022/11/17 08:24:20;;;;;;;0.57;0.40;;;;;;;9.64;100.00;98421.41;5028518;28;96712;-30
2022/11/17 08:26:46;;;;;;;0.38;0.22;;;;;;;9.63;100.00;98436.78;5031752;28;104037;-31
2022/11/17 08:29:11;;;;;;;0.20;0.20;;;;;;;9.64;100.00;98443.88;5031460;27;99255;-31
2022/11/17 08:31:37;;;;;;;0.10;0.10;;;;;;;9.62;100.00;98440.47;5031918;27;97876;-33
2022/11/17 08:34:03;;;;;;;0.35;0.25;;;;;;;9.64;100.00;98454.69;5031030;27;96568;-31
2022/11/17 08:36:29;;;;;;;0.08;0.08;;;;;;;9.65;100.00;98445.56;5034603;28;110912;-32
2022/11/17 08:38:54;;;;;;;2.17;0.22;;;;;;;9.64;100.00;98451.16;5034876;27;99214;-31
2022/11/17 08:41:20;;;;;;;0.10;0.10;;;;;;;9.64;100.00;98457.41;5034678;28;115517;-31
2022/11/17 08:43:45;;;;;;;0.43;0.25;;;;;;;9.61;100.00;98443.34;5035245;27;96539;-31
2022/11/17 08:46:12;;;;;;;1.35;0.50;;;;;;;9.64;100.00;98454.69;5035252;27;96810;-31
2022/11/17 08:48:37;;;;;;;0.57;0.30;;;;;;;9.62;100.00;98462.09;5033606;28;100836;-31
2022/11/17 08:51:07;;;;;;;0.45;0.20;;;;;;;9.62;100.00;98459.38;5035578;27;97614;-30
2022/11/17 08:53:32;;;;;;;3.55;0.60;;;;;;;9.64;100.00;98468.22;5033560;27;96732;-31
2022/11/17 08:55:58;;;;;;;3.17;0.32;;;;;;;9.62;100.00;98472.91;5035232;28;96850;-31
2022/11/17 08:58:24;;;;;;;0.60;0.50;;;;;;;9.60;100.00;98483.00;5034235;27;99218;-31
2022/11/17 09:00:49;;;;;;;0.30;0.30;;;;;;;9.60;100.00;98474.06;5035007;27;97776;-31
2022/11/17 09:03:14;;;;;;;0.50;0.10;;;;;;;9.59;100.00;98478.63;5034809;28;106232;-31
2022/11/17 09:05:43;;;;;;;0.35;0.35;;;;;;;9.60;100.00;98491.13;5034757;27;96779;-31
2022/11/17 09:08:09;;;;;;;1.30;0.47;;;;;;;9.59;100.00;98477.78;5033155;28;101197;-32
2022/11/17 09:10:37;;;;;;;0.80;0.30;;;;;;;9.57;100.00;98484.16;5033324;27;100656;-31
2022/11/17 09:13:03;;;;;;;1.08;0.45;;;;;;;9.58;100.00;98498.50;5034852;27;96461;-30
2022/11/17 09:15:28;;;;;;;0.15;0.10;;;;;;;9.58;100.00;98495.81;5034935;27;104458;-30
2022/11/17 09:17:54;;;;;;;2.28;0.22;;;;;;;9.58;100.00;98498.50;5034744;27;97980;-31
2022/11/17 09:20:20;;;;;;;0.77;0.50;;;;;;;9.58;100.00;98490.41;5033096;28;101130;-31
2022/11/17 09:22:45;;;;;;;2.38;0.50;;;;;;;9.55;100.00;98498.81;5033417;27;96744;-31
2022/11/17 09:25:13;;;;;;;0.68;0.28;;;;;;;9.55;100.00;98496.13;5033332;28;96877;-31
2022/11/17 09:27:39;;;;;;;1.13;0.52;;;;;;;9.54;100.00;98503.38;5032997;28;100762;-31
2022/11/17 09:30:06;;;;;;;0.88;0.50;;;;;;;9.53;100.00;98501.69;5034374;27;96896;-31
2022/11/17 09:32:33;;;;;;;1.23;0.47;;;;;;;9.56;100.00;98500.53;5032831;28;96643;-32
2022/11/17 09:34:59;;;;;;;1.83;0.40;;;;;;;9.59;100.00;98507.50;5033046;27;96879;-32
2022/11/17 09:37:26;;;;;;;0.40;0.30;;;;;;;9.57;100.00;98513.03;5034156;27;99279;-32
2022/11/17 09:39:52;;;;;;;0.25;0.10;;;;;;;9.56;100.00;98514.91;5033019;28;100976;-30
2022/11/17 09:42:18;;;;;;;0.73;0.40;;;;;;;9.57;100.00;98518.44;5034396;27;96694;-31
2022/11/17 09:44:55;;;;;;;1.13;0.52;;;;;;;9.56;100.00;98527.56;5032957;28;96785;-31
2022/11/17 09:47:29;;;;;;;1.17;0.52;;;;;;;9.57;100.00;98535.50;5032461;27;97975;-31
2022/11/17 09:50:04;;;;;;;4.50;0.40;;;;;;;9.59;100.00;98534.53;5034192;28;97378;-31
2022/11/17 09:53:00;;;;;;;1.02;0.43;;;;;;;9.62;100.00;98543.19;5034107;28;96619;-31
2022/11/17 09:55:30;;;;;;;2.17;0.60;;;;;;;9.63;100.00;98550.31;5008211;27;96914;-31
2022/11/17 09:58:04;;;;;;;0.30;0.20;;;;;;;9.63;99.75;98561.13;5032518;28;102117;-31
2022/11/17 10:00:31;;;;;;;7.00;0.40;;;;;;;9.63;99.83;98547.59;5033741;27;98164;-31
2022/11/17 10:02:56;;;;;;;0.50;0.20;;;;;;;9.65;99.83;98548.28;5032676;28;96562;-31
2022/11/17 10:05:34;;;;;;;2.15;0.40;;;;;;;9.65;99.60;98569.91;5033649;27;116423;-32
2022/11/17 10:08:05;;;;;;;1.80;0.60;;;;;;;9.61;99.71;98565.81;5033996;27;98084;-31
2022/11/17 10:10:50;;;;;;;0.20;0.20;;;;;;;9.62;99.57;98570.22;5032530;28;101155;-31
2022/11/17 10:13:25;;;;;;;1.63;0.47;;;;;;;9.64;99.95;98570.91;5031935;28;96925;-31
2022/11/17 10:16:06;;;;;;;0.32;0.20;;;;;;;9.57;100.00;98558.97;5032275;28;96786;-32
2022/11/17 10:18:35;;;;;;;1.70;0.50;;;;;;;9.56;100.00;98573.50;5033582;28;97909;-31
2022/11/17 10:21:00;;;;;;;0.45;0.45;;;;;;;9.55;100.00;98569.94;5033297;28;101767;-31
2022/11/17 10:23:39;;;;;;;1.50;0.40;;;;;;;9.56;100.00;98585.16;5033214;28;96782;-31
2022/11/17 10:26:13;;;;;;;1.48;0.70;;;;;;;9.53;100.00;98588.16;5032147;28;96600;-31
2022/11/17 10:28:38;;;;;;;2.15;0.50;;;;;;;9.51;100.00;98595.56;5033582;28;98042;-30
2022/11/17 10:31:12;;;;;;;1.25;0.60;;;;;;;9.51;100.00;98602.78;5033848;27;97933;-31
2022/11/17 10:33:46;;;;;;;0.38;0.32;;;;;;;9.53;100.00;98600.78;5033538;27;96611;-31
2022/11/17 10:36:29;;;;;;;0.88;0.47;;;;;;;9.54;100.00;98599.81;5033295;27;96778;-32
2022/11/17 10:38:58;;;;;;;4.07;0.95;;;;;;;9.54;100.00;98600.66;5031344;27;100858;-33
2022/11/17 10:41:29;;;;;;;2.22;0.80;;;;;;;9.53;100.00;98598.09;5031815;28;101040;-31
2022/11/17 10:44:04;;;;;;;0.35;0.35;;;;;;;9.49;100.00;98597.53;5032037;28;96561;-32
2022/11/17 10:46:30;;;;;;;1.13;0.55;;;;;;;9.54;100.00;98602.53;5031888;28;97310;-30
2022/11/17 10:49:03;;;;;;;1.35;0.40;;;;;;;9.54;99.91;98611.47;5031747;28;100806;-30
2022/11/17 10:51:31;;;;;;;7.32;0.77;;;;;;;9.53;99.75;98604.38;5033052;27;99452;-31
2022/11/17 10:54:15;;;;;;;0.25;0.15;;;;;;;9.56;99.13;98611.34;5031772;28;96539;-31
2022/11/17 10:56:46;;;;;;;0.82;0.43;;;;;;;9.54;98.05;98606.06;5033208;28;96916;-31
2022/11/17 10:59:28;;;;;;;0.77;0.52;;;;;;;9.55;98.31;98605.06;5031030;28;101329;-31
2022/11/17 11:01:54;;;;;;;;;;;;;;;9.57;98.33;98621.16;5015230;28;100867;-33
2022/11/17 11:04:34;;;;;;;1.15;0.50;;;;;;;9.53;97.84;98620.59;5032605;28;96682;-31
2022/11/17 11:07:18;;;;;;;0.75;0.40;;;;;;;9.53;98.02;98619.72;5031236;27;96958;-31
2022/11/17 11:10:13;;;;;;;1.30;0.20;;;;;;;9.55;98.29;98626.69;5031428;28;100715;-31
2022/11/17 11:12:44;;;;;;;0.68;0.40;;;;;;;9.55;98.58;98623.13;5031422;28;101151;-31
2022/11/17 11:15:31;;;;;;;0.47;0.47;;;;;;;9.53;98.85;98634.09;5031534;28;96510;-31
2022/11/17 11:17:57;;;;;;;1.65;0.32;;;;;;;9.52;99.50;98647.75;5031271;28;96746;-31
2022/11/17 11:21:06;;;;;;;1.88;0.43;;;;;;;9.53;99.51;98636.81;5033129;28;97413;-30
2022/11/17 11:23:54;;;;;;;0.82;0.60;;;;;;;9.54;99.93;98637.66;5011735;27;98999;-30
2022/11/17 11:26:34;;;;;;;3.10;0.47;;;;;;;9.52;99.75;98636.94;5031349;28;96643;-32
2022/11/17 11:29:14;;;;;;;0.68;0.43;;;;;;;9.51;100.00;98640.63;5031334;28;96700;-33
2022/11/17 11:32:00;;;;;;;7.25;0.47;;;;;;;9.53;100.00;98636.81;5030533;28;101315;-31
2022/11/17 11:34:57;;;;;;;0.77;0.40;;;;;;;9.53;100.00;98636.81;5031013;28;101001;-31
2022/11/17 11:37:33;;;;;;;4.28;0.70;;;;;;;9.52;99.96;98645.91;5032594;28;96575;-31
2022/11/17 11:40:39;;;;;;;0.77;0.30;;;;;;;9.54;99.41;98627.69;5031032;28;96900;-30
2022/11/17 11:43:25;;;;;;;1.35;0.30;;;;;;;9.55;99.47;98640.19;4970221;28;97917;-31
2022/11/17 11:46:17;;;;;;;0.82;0.45;;;;;;;9.59;99.25;98643.47;4953779;28;101154;-33
2022/11/17 11:48:44;;;;;;;;;;;;;;;9.61;99.72;98644.19;5019262;27;96955;-32
2022/11/17 11:51:16;;;;;;;0.68;0.28;;;;;;;9.62;99.12;98655.84;5032975;28;96862;-31
2022/11/17 11:54:04;;;;;;;0.60;0.30;;;;;;;9.64;98.93;98653.88;5032101;27;97376;-31
2022/11/17 11:56:33;;;;;;;2.15;0.63;;;;;;;9.64;98.91;98656.56;5030711;28;99967;-32
2022/11/17 11:59:11;;;;;;;1.73;0.65;;;;;;;9.66;99.13;98654.59;5030127;28;96672;-31
2022/11/17 12:01:59;;;;;;;0.88;0.47;;;;;;;9.67;99.25;98654.41;5030886;28;96630;-31
2022/11/17 12:04:46;;;;;;;0.38;0.30;;;;;;;9.66;99.25;98654.59;5001161;27;97865;-32
2022/11/17 12:07:26;;;;;;;3.85;0.60;;;;;;;9.66;98.97;98657.28;5031641;27;99367;-31
2022/11/17 12:10:18;;;;;;;1.55;0.50;;;;;;;9.68;99.05;98663.41;5031614;27;97024;-31
2022/11/17 12:12:45;;;;;;;2.00;0.77;;;;;;;9.69;99.01;98665.94;5003240;27;96906;-31
2022/11/17 12:15:28;;;;;;;0.10;0.08;;;;;;;9.69;98.99;98662.41;5034077;28;100939;-31